createdAt,value
2022-08-29T00:00:49.329Z,65.31
2022-08-29T00:03:17.771Z,66.16
2022-08-29T00:05:49.949Z,66.41
2022-08-29T00:08:17.495Z,65.92
2022-08-29T00:10:44.295Z,64.60
2022-08-29T00:13:12.086Z,64.14
2022-08-29T00:15:44.827Z,64.58
2022-08-29T00:18:13.360Z,64.48
2022-08-29T00:20:40.707Z,67.09
2022-08-29T00:23:07.977Z,65.50
2022-08-29T00:25:35.266Z,65.62
2022-08-29T00:28:02.457Z,65.01
2022-08-29T00:30:30.135Z,65.56
2022-08-29T00:32:56.926Z,64.62
2022-08-29T00:35:27.647Z,65.49
2022-08-29T00:37:55.223Z,64.52
2022-08-29T00:40:28.789Z,64.71
2022-08-29T00:42:55.945Z,64.88
2022-08-29T00:45:23.789Z,65.08
2022-08-29T00:48:08.786Z,65.90
2022-08-29T00:50:40.055Z,65.00
2022-08-29T00:53:10.680Z,65.70
2022-08-29T00:55:40.316Z,65.27
2022-08-29T00:58:14.383Z,66.56
2022-08-29T01:00:42.854Z,66.72
2022-08-29T01:03:09.653Z,66.95
2022-08-29T01:05:37.616Z,66.46
2022-08-29T01:08:05.828Z,66.83
2022-08-29T01:10:51.922Z,65.84
2022-08-29T01:13:18.811Z,65.87
2022-08-29T01:15:47.178Z,65.93
2022-08-29T01:18:16.203Z,67.99
2022-08-29T01:21:15.193Z,68.01
2022-08-29T01:23:50.863Z,66.42
2022-08-29T01:26:17.662Z,66.36
2022-08-29T01:28:49.596Z,65.62
2022-08-29T01:31:42.186Z,66.38
2022-08-29T01:34:11.184Z,66.25
2022-08-29T01:36:53.852Z,65.90
2022-08-29T01:39:23.371Z,65.81
2022-08-29T01:41:50.508Z,66.85
2022-08-29T01:44:22.314Z,66.91
2022-08-29T01:46:51.310Z,66.73
2022-08-29T01:49:19.505Z,67.26
2022-08-29T01:51:46.494Z,67.22
2022-08-29T01:54:14.204Z,68.80
2022-08-29T01:56:44.616Z,66.46
2022-08-29T01:59:15.914Z,66.62
2022-08-29T02:01:48.530Z,67.61
2022-08-29T02:04:15.725Z,67.35
2022-08-29T02:06:43.090Z,66.91
2022-08-29T02:09:11.210Z,66.72
2022-08-29T02:11:40.057Z,66.98
2022-08-29T02:14:08.068Z,66.40
2022-08-29T02:16:43.069Z,66.80
2022-08-29T02:19:09.871Z,67.97
2022-08-29T02:21:36.607Z,67.82
2022-08-29T02:24:23.952Z,66.30
2022-08-29T02:26:51.924Z,66.15
2022-08-29T02:29:18.713Z,67.95
2022-08-29T02:31:45.531Z,67.03
2022-08-29T02:34:13.146Z,67.80
2022-08-29T02:36:41.534Z,66.89
2022-08-29T02:39:10.074Z,67.83
2022-08-29T02:41:38.054Z,67.52
2022-08-29T02:44:05.224Z,68.79
2022-08-29T02:46:32.555Z,67.35
2022-08-29T02:49:00.733Z,66.81
2022-08-29T02:51:30.957Z,67.08
2022-08-29T02:53:58.343Z,67.26
2022-08-29T02:56:25.836Z,67.73
2022-08-29T02:58:52.828Z,67.83
2022-08-29T03:01:21.886Z,69.91
2022-08-29T03:03:50.563Z,68.32
2022-08-29T03:06:18.593Z,67.92
2022-08-29T03:08:45.800Z,67.93
2022-08-29T03:11:12.564Z,67.74
2022-08-29T03:13:39.459Z,68.43
2022-08-29T03:16:06.365Z,66.99
2022-08-29T03:18:33.257Z,66.89
2022-08-29T03:21:00.304Z,67.19
2022-08-29T03:23:27.095Z,68.26
2022-08-29T03:25:55.139Z,67.87
2022-08-29T03:28:21.866Z,68.41
2022-08-29T03:30:48.748Z,68.26
2022-08-29T03:33:15.856Z,68.78
2022-08-29T03:35:43.135Z,69.13
2022-08-29T03:38:10.011Z,68.13
2022-08-29T03:40:37.129Z,68.80
2022-08-29T03:43:03.997Z,69.03
2022-08-29T03:45:30.831Z,68.63
2022-08-29T03:47:57.615Z,67.92
2022-08-29T03:50:24.633Z,67.85
2022-08-29T03:52:52.072Z,68.10
2022-08-29T03:55:20.413Z,67.39
2022-08-29T03:57:47.670Z,67.56
2022-08-29T04:00:17.482Z,67.00
2022-08-29T04:02:46.951Z,67.79
2022-08-29T04:05:16.917Z,67.59
2022-08-29T04:07:57.330Z,67.01
2022-08-29T04:10:28.201Z,67.57
2022-08-29T04:12:55.162Z,65.83
2022-08-29T04:15:24.208Z,66.85
2022-08-29T04:17:54.569Z,66.65
2022-08-29T04:20:25.393Z,66.58
2022-08-29T04:22:54.444Z,67.24
2022-08-29T04:25:22.691Z,65.93
2022-08-29T04:27:49.819Z,65.51
2022-08-29T04:30:19.969Z,65.18
2022-08-29T04:32:47.473Z,66.50
2022-08-29T04:35:15.981Z,66.62
2022-08-29T04:37:43.981Z,65.95
2022-08-29T04:40:18.423Z,65.78
2022-08-29T04:42:47.261Z,65.79
2022-08-29T04:45:18.050Z,65.23
2022-08-29T04:47:45.176Z,65.44
2022-08-29T04:50:15.534Z,64.11
2022-08-29T04:52:43.994Z,64.46
2022-08-29T04:55:12.369Z,63.83
2022-08-29T04:57:40.239Z,63.00
2022-08-29T05:00:14.019Z,63.70
2022-08-29T05:02:42.550Z,63.43
2022-08-29T05:05:11.430Z,62.89
2022-08-29T05:07:38.669Z,63.18
2022-08-29T05:10:11.588Z,63.07
2022-08-29T05:12:38.332Z,62.79
2022-08-29T05:15:07.009Z,63.63
2022-08-29T05:17:33.858Z,62.39
2022-08-29T05:20:01.239Z,63.43
2022-08-29T05:22:27.989Z,63.26
2022-08-29T05:24:57.125Z,62.60
2022-08-29T05:27:24.289Z,62.56
2022-08-29T05:29:51.951Z,62.65
2022-08-29T05:32:19.724Z,61.83
2022-08-29T05:34:48.350Z,61.37
2022-08-29T05:37:19.593Z,61.24
2022-08-29T05:39:47.750Z,61.13
2022-08-29T05:42:17.202Z,61.01
2022-08-29T05:44:44.298Z,60.74
2022-08-29T05:47:13.620Z,60.80
2022-08-29T05:49:42.579Z,60.37
2022-08-29T05:52:10.687Z,60.46
2022-08-29T05:54:40.590Z,61.59
2022-08-29T05:57:15.369Z,60.52
2022-08-29T05:59:45.091Z,61.43
2022-08-29T06:02:12.713Z,61.83
2022-08-29T06:04:39.867Z,60.74
2022-08-29T06:07:07.739Z,60.88
2022-08-29T06:09:36.040Z,61.03
2022-08-29T06:12:03.463Z,60.79
2022-08-29T06:14:30.271Z,60.75
2022-08-29T06:16:57.316Z,60.83
2022-08-29T06:19:24.639Z,60.02
2022-08-29T06:21:54.418Z,60.33
2022-08-29T06:24:21.320Z,58.78
2022-08-29T06:26:48.074Z,60.41
2022-08-29T06:29:16.145Z,60.83
2022-08-29T06:31:43.220Z,60.44
2022-08-29T06:34:10.089Z,58.75
2022-08-29T06:36:37.636Z,59.29
2022-08-29T06:39:07.489Z,59.49
2022-08-29T06:41:36.017Z,58.44
2022-08-29T06:44:03.591Z,57.69
2022-08-29T06:46:32.511Z,57.81
2022-08-29T06:49:02.030Z,56.91
2022-08-29T06:51:33.062Z,57.67
2022-08-29T06:54:01.475Z,58.15
2022-08-29T06:56:29.866Z,56.55
2022-08-29T06:58:56.944Z,58.28
2022-08-29T07:01:24.305Z,57.88
2022-08-29T07:03:54.711Z,57.17
2022-08-29T07:06:21.885Z,56.78
2022-08-29T07:08:55.891Z,56.37
2022-08-29T07:11:24.730Z,55.25
2022-08-29T07:13:51.787Z,57.03
2022-08-29T07:16:19.264Z,56.56
2022-08-29T07:18:47.089Z,56.91
2022-08-29T07:21:20.337Z,57.09
2022-08-29T07:23:48.549Z,57.67
2022-08-29T07:26:18.116Z,55.65
2022-08-29T07:28:47.243Z,56.25
2022-08-29T07:31:14.718Z,57.99
2022-08-29T07:33:41.569Z,57.39
2022-08-29T07:36:08.908Z,58.26
2022-08-29T07:38:36.127Z,57.56
2022-08-29T07:41:08.497Z,57.27
2022-08-29T07:43:36.267Z,57.70
2022-08-29T07:46:11.822Z,57.06
2022-08-29T07:48:39.666Z,55.73
2022-08-29T07:51:12.076Z,54.34
2022-08-29T07:53:40.426Z,55.72
2022-08-29T07:56:09.366Z,54.55
2022-08-29T07:58:36.667Z,54.07
2022-08-29T08:01:04.603Z,54.86
2022-08-29T08:03:32.926Z,55.79
2022-08-29T08:06:00.273Z,56.14
2022-08-29T08:08:33.774Z,57.09
2022-08-29T08:11:01.509Z,53.25
2022-08-29T08:13:28.908Z,53.67
2022-08-29T08:15:55.846Z,54.79
2022-08-29T08:18:23.202Z,53.56
2022-08-29T08:20:50.036Z,53.05
2022-08-29T08:23:18.971Z,51.15
2022-08-29T08:25:46.196Z,49.98
2022-08-29T08:28:17.274Z,49.88
2022-08-29T08:30:44.667Z,50.56
2022-08-29T08:33:11.964Z,49.11
2022-08-29T08:35:42.016Z,48.94
2022-08-29T08:38:09.307Z,50.18
2022-08-29T08:40:44.466Z,49.53
2022-08-29T08:43:21.374Z,47.19
2022-08-29T08:45:55.576Z,47.24
2022-08-29T08:48:26.232Z,46.27
2022-08-29T08:51:21.967Z,47.65
2022-08-29T08:53:52.956Z,47.91
2022-08-29T08:56:26.905Z,47.49
2022-08-29T08:59:32.637Z,46.91
2022-08-29T09:02:06.521Z,46.96
2022-08-29T09:04:59.988Z,47.45
2022-08-29T09:07:37.102Z,47.58
2022-08-29T09:10:30.500Z,48.64
2022-08-29T09:13:09.486Z,48.56
2022-08-29T09:15:46.228Z,47.53
2022-08-29T09:18:31.462Z,46.42
2022-08-29T09:21:06.608Z,46.54
2022-08-29T09:23:47.268Z,46.02
2022-08-29T09:26:20.495Z,45.72
2022-08-29T09:28:48.678Z,43.45
2022-08-29T09:31:27.249Z,46.30
2022-08-29T09:34:03.864Z,44.06
2022-08-29T09:36:52.800Z,43.08
2022-08-29T09:39:31.567Z,42.89
2022-08-29T09:42:21.908Z,42.39
2022-08-29T09:44:57.945Z,42.27
2022-08-29T09:47:29.966Z,42.72
2022-08-29T09:50:21.236Z,42.26
2022-08-29T09:52:56.048Z,43.10
2022-08-29T09:55:31.226Z,41.81
2022-08-29T09:58:29.736Z,42.84
2022-08-29T10:01:16.720Z,42.54
2022-08-29T10:04:00.747Z,41.99
2022-08-29T10:06:32.410Z,41.86
2022-08-29T10:09:26.904Z,42.63
2022-08-29T10:12:01.206Z,41.39
2022-08-29T10:14:41.360Z,41.79
2022-08-29T10:17:41.937Z,42.39
2022-08-29T10:20:11.833Z,43.45
2022-08-29T10:22:52.416Z,44.45
2022-08-29T10:25:27.163Z,43.93
2022-08-29T10:27:56.794Z,43.36
2022-08-29T10:30:29.638Z,42.17
2022-08-29T10:33:04.869Z,41.70
2022-08-29T10:35:34.596Z,42.31
2022-08-29T10:38:15.088Z,40.95
2022-08-29T10:40:47.917Z,40.23
2022-08-29T10:43:20.696Z,40.75
2022-08-29T10:46:08.811Z,39.66
2022-08-29T10:48:45.658Z,38.75
2022-08-29T10:51:31.658Z,38.76
2022-08-29T10:54:07.248Z,38.90
2022-08-29T10:56:41.025Z,36.37
2022-08-29T10:59:19.956Z,35.82
2022-08-29T11:01:57.576Z,38.51
2022-08-29T11:04:33.447Z,38.21
2022-08-29T11:07:06.738Z,34.57
2022-08-29T11:09:43.316Z,35.11
2022-08-29T11:12:25.873Z,37.38
2022-08-29T11:15:02.392Z,36.98
2022-08-29T11:17:34.670Z,36.22
2022-08-29T11:20:17.667Z,37.05
2022-08-29T11:23:01.946Z,35.40
2022-08-29T11:25:32.816Z,36.46
2022-08-29T11:28:08.610Z,35.96
2022-08-29T11:30:59.327Z,35.97
2022-08-29T11:33:32.850Z,38.65
2022-08-29T11:36:30.624Z,38.17
2022-08-29T11:39:23.421Z,38.70
2022-08-29T11:41:58.493Z,35.27
2022-08-29T11:44:34.146Z,34.66
2022-08-29T11:47:02.048Z,37.52
2022-08-29T11:49:43.192Z,36.66
2022-08-29T11:52:11.100Z,36.66
2022-08-29T11:54:48.213Z,35.61
2022-08-29T11:57:16.567Z,37.89
2022-08-29T11:59:49.397Z,37.63
2022-08-29T12:02:28.565Z,36.82
2022-08-29T12:04:59.727Z,36.55
2022-08-29T12:07:35.157Z,37.60
2022-08-29T12:10:07.950Z,36.32
2022-08-29T12:12:44.024Z,36.47
2022-08-29T12:15:32.811Z,36.05
2022-08-29T12:18:09.418Z,37.69
2022-08-29T12:20:45.875Z,37.08
2022-08-29T12:23:15.787Z,37.81
2022-08-29T12:25:45.415Z,37.68
2022-08-29T12:28:20.617Z,37.40
2022-08-29T12:30:47.368Z,38.05
2022-08-29T12:33:49.594Z,37.13
2022-08-29T12:36:38.116Z,37.61
2022-08-29T12:39:20.909Z,37.16
2022-08-29T12:42:17.649Z,35.82
2022-08-29T12:44:49.939Z,37.45
2022-08-29T12:47:27.916Z,36.02
2022-08-29T12:49:58.859Z,36.67
2022-08-29T12:52:35.716Z,38.83
2022-08-29T12:55:28.759Z,38.49
2022-08-29T12:57:57.727Z,37.77
2022-08-29T13:00:31.193Z,37.24
2022-08-29T13:03:09.636Z,37.17
2022-08-29T13:05:43.163Z,36.92
2022-08-29T13:08:33.346Z,39.76
2022-08-29T13:11:03.131Z,39.08
2022-08-29T13:13:30.367Z,39.66
2022-08-29T13:16:01.718Z,40.41
2022-08-29T13:18:31.262Z,41.12
2022-08-29T13:21:14.667Z,40.50
2022-08-29T13:23:46.201Z,38.39
2022-08-29T13:26:14.289Z,39.23
2022-08-29T13:28:49.046Z,40.43
2022-08-29T13:31:15.853Z,39.89
2022-08-29T13:33:48.806Z,40.34
2022-08-29T13:36:27.898Z,40.30
2022-08-29T13:39:25.088Z,39.12
2022-08-29T13:41:57.917Z,38.54
2022-08-29T13:44:29.707Z,40.47
2022-08-29T13:46:59.643Z,40.22
2022-08-29T13:49:36.640Z,40.29
2022-08-29T13:52:07.827Z,42.27
2022-08-29T13:54:39.354Z,41.18
2022-08-29T13:57:09.604Z,39.54
2022-08-29T13:59:36.976Z,39.50
2022-08-29T14:02:10.498Z,38.68
2022-08-29T14:04:39.809Z,38.07
2022-08-29T14:07:11.961Z,38.42
2022-08-29T14:09:42.027Z,40.23
2022-08-29T14:12:10.097Z,39.61
2022-08-29T14:14:36.846Z,39.76
2022-08-29T14:17:04.464Z,37.61
2022-08-29T14:19:32.471Z,36.39
2022-08-29T14:22:00.642Z,38.23
2022-08-29T14:24:31.168Z,36.22
2022-08-29T14:27:01.713Z,36.65
2022-08-29T14:29:30.851Z,37.40
2022-08-29T14:31:59.147Z,37.81
2022-08-29T14:34:32.353Z,38.94
2022-08-29T14:37:00.599Z,37.92
2022-08-29T14:39:27.675Z,39.15
2022-08-29T14:41:55.084Z,39.71
2022-08-29T14:44:22.612Z,40.82
2022-08-29T14:46:50.271Z,40.52
2022-08-29T14:49:18.191Z,38.30
2022-08-29T14:51:45.057Z,38.37
2022-08-29T14:54:12.587Z,40.72
2022-08-29T14:56:48.708Z,40.42
2022-08-29T14:59:15.990Z,41.42
2022-08-29T15:01:43.155Z,40.61
2022-08-29T15:04:11.181Z,40.24
2022-08-29T15:06:38.608Z,40.01
2022-08-29T15:09:06.202Z,39.24
2022-08-29T15:11:33.152Z,40.10
2022-08-29T15:14:04.339Z,40.02
2022-08-29T15:16:32.717Z,39.32
2022-08-29T15:19:40.602Z,40.84
2022-08-29T15:21:49.898Z,41.08
2022-08-29T15:24:16.687Z,40.39
2022-08-29T15:26:45.047Z,41.66
2022-08-29T15:29:12.077Z,41.45
2022-08-29T15:31:38.889Z,40.79
2022-08-29T15:34:06.337Z,40.88
2022-08-29T15:36:34.361Z,40.52
2022-08-29T15:39:05.057Z,39.48
2022-08-29T15:41:32.816Z,39.69
2022-08-29T15:43:59.957Z,39.56
2022-08-29T15:46:27.034Z,40.28
2022-08-29T15:48:54.237Z,40.28
2022-08-29T15:51:21.727Z,40.58
2022-08-29T15:53:48.611Z,40.82
2022-08-29T15:56:15.507Z,42.62
2022-08-29T15:58:44.066Z,42.16
2022-08-29T16:01:12.426Z,42.52
2022-08-29T16:03:39.227Z,42.07
2022-08-29T16:06:06.479Z,41.24
2022-08-29T16:08:33.313Z,40.87
2022-08-29T16:11:01.038Z,41.26
2022-08-29T16:13:27.919Z,41.38
2022-08-29T16:15:55.014Z,41.57
2022-08-29T16:18:21.936Z,40.93
2022-08-29T16:20:48.706Z,41.59
2022-08-29T16:23:17.112Z,42.32
2022-08-29T16:25:44.831Z,42.84
2022-08-29T16:28:11.943Z,42.25
2022-08-29T16:30:45.946Z,42.85
2022-08-29T16:33:13.699Z,45.18
2022-08-29T16:35:40.646Z,44.00
2022-08-29T16:38:07.437Z,43.55
2022-08-29T16:40:34.511Z,43.49
2022-08-29T16:43:02.932Z,43.25
2022-08-29T16:45:30.950Z,43.50
2022-08-29T16:47:57.895Z,43.79
2022-08-29T16:50:25.775Z,43.18
2022-08-29T16:52:52.925Z,42.36
2022-08-29T16:55:20.248Z,42.80
2022-08-29T16:58:07.093Z,42.97
2022-08-29T17:00:34.467Z,43.33
2022-08-29T17:03:01.527Z,43.22
2022-08-29T17:05:28.555Z,43.99
2022-08-29T17:07:55.246Z,42.60
2022-08-29T17:10:22.178Z,42.87
2022-08-29T17:12:48.924Z,41.96
2022-08-29T17:15:15.806Z,42.91
2022-08-29T17:17:42.938Z,42.75
2022-08-29T17:20:11.685Z,42.33
2022-08-29T17:22:38.533Z,42.19
2022-08-29T17:25:05.859Z,42.02
2022-08-29T17:27:32.870Z,42.31
2022-08-29T17:29:59.600Z,42.44
2022-08-29T17:32:26.346Z,42.09
2022-08-29T17:34:53.136Z,42.74
2022-08-29T17:37:19.944Z,42.29
2022-08-29T17:39:46.726Z,42.07
2022-08-29T17:42:14.541Z,42.02
2022-08-29T17:44:41.892Z,42.06
2022-08-29T17:47:08.707Z,42.18
2022-08-29T17:49:35.468Z,42.26
2022-08-29T17:52:02.606Z,42.13
2022-08-29T17:54:29.508Z,42.12
2022-08-29T17:57:00.256Z,42.62
2022-08-29T17:59:30.658Z,42.42
2022-08-29T18:01:58.852Z,42.69
2022-08-29T18:04:27.037Z,42.73
2022-08-29T18:06:57.341Z,42.81
2022-08-29T18:09:24.716Z,42.96
2022-08-29T18:11:53.047Z,43.52
2022-08-29T18:14:22.765Z,43.68
2022-08-29T18:16:50.641Z,43.86
2022-08-29T18:19:18.213Z,44.15
2022-08-29T18:21:45.805Z,44.05
2022-08-29T18:24:15.186Z,43.77
2022-08-29T18:26:43.459Z,43.61
2022-08-29T18:29:11.047Z,43.93
2022-08-29T18:31:37.917Z,44.51
2022-08-29T18:34:04.933Z,44.93
2022-08-29T18:36:33.643Z,44.83
2022-08-29T18:39:02.575Z,44.92
2022-08-29T18:41:29.884Z,45.71
2022-08-29T18:43:57.387Z,46.54
2022-08-29T18:46:24.470Z,45.84
2022-08-29T18:48:52.067Z,46.05
2022-08-29T18:51:19.898Z,45.61
2022-08-29T18:53:47.656Z,45.38
2022-08-29T18:56:14.964Z,46.62
2022-08-29T18:58:44.402Z,48.07
2022-08-29T19:01:13.760Z,49.48
2022-08-29T19:03:41.820Z,49.41
2022-08-29T19:06:08.717Z,49.97
2022-08-29T19:08:36.605Z,50.57
2022-08-29T19:11:06.867Z,51.13
2022-08-29T19:13:37.971Z,51.31
2022-08-29T19:16:10.168Z,51.83
2022-08-29T19:18:37.387Z,52.26
2022-08-29T19:21:07.547Z,52.91
2022-08-29T19:23:36.338Z,53.48
2022-08-29T19:26:07.565Z,53.26
2022-08-29T19:28:35.064Z,53.26
2022-08-29T19:31:02.489Z,51.95
2022-08-29T19:33:29.564Z,50.84
2022-08-29T19:35:56.444Z,51.51
2022-08-29T19:38:24.161Z,51.60
2022-08-29T19:40:57.094Z,51.16
2022-08-29T19:43:31.176Z,51.66
2022-08-29T19:45:59.098Z,51.41
2022-08-29T19:48:27.086Z,51.77
2022-08-29T19:50:54.547Z,51.55
2022-08-29T19:53:26.230Z,51.60
2022-08-29T19:55:55.768Z,51.55
2022-08-29T19:58:31.060Z,51.40
2022-08-29T20:01:07.012Z,51.93
2022-08-29T20:03:37.648Z,51.49
2022-08-29T20:06:07.584Z,51.31
2022-08-29T20:08:39.935Z,51.29
2022-08-29T20:11:06.928Z,51.34
2022-08-29T20:13:35.915Z,50.92
2022-08-29T20:16:09.709Z,50.84
2022-08-29T20:18:40.577Z,50.71
2022-08-29T20:21:07.708Z,50.95
2022-08-29T20:23:34.629Z,50.92
2022-08-29T20:26:01.764Z,55.41
2022-08-29T20:28:30.932Z,53.67
2022-08-29T20:30:58.178Z,54.52
2022-08-29T20:33:25.654Z,54.33
2022-08-29T20:36:11.449Z,54.57
2022-08-29T20:38:38.213Z,54.45
2022-08-29T20:41:05.146Z,55.27
2022-08-29T20:43:32.098Z,55.92
2022-08-29T20:45:59.935Z,55.73
2022-08-29T20:48:31.454Z,55.90
2022-08-29T20:51:02.854Z,56.19
2022-08-29T20:53:32.415Z,55.86
2022-08-29T20:56:01.071Z,55.34
2022-08-29T20:58:30.297Z,54.58
2022-08-29T21:00:59.674Z,54.52
2022-08-29T21:03:45.278Z,55.94
2022-08-29T21:06:12.931Z,57.04
2022-08-29T21:08:41.148Z,56.26
2022-08-29T21:11:08.186Z,56.33
2022-08-29T21:13:35.037Z,57.25
2022-08-29T21:16:02.096Z,55.96
2022-08-29T21:18:28.877Z,55.34
2022-08-29T21:20:55.777Z,54.30
2022-08-29T21:23:24.650Z,55.15
2022-08-29T21:25:56.416Z,54.62
2022-08-29T21:28:25.046Z,54.91
2022-08-29T21:30:52.220Z,55.28
2022-08-29T21:33:20.011Z,54.74
2022-08-29T21:35:47.038Z,57.48
2022-08-29T21:38:17.359Z,56.66
2022-08-29T21:40:51.041Z,56.92
2022-08-29T21:43:19.610Z,56.60
2022-08-29T21:45:47.429Z,55.96
2022-08-29T21:48:14.211Z,55.46
2022-08-29T21:50:41.005Z,55.50
2022-08-29T21:53:07.724Z,55.84
2022-08-29T21:55:34.526Z,56.37
2022-08-29T21:58:01.980Z,55.43
2022-08-29T22:00:34.423Z,54.88
2022-08-29T22:03:03.806Z,54.63
2022-08-29T22:05:31.350Z,55.26
2022-08-29T22:07:58.369Z,54.67
2022-08-29T22:10:28.388Z,54.97
2022-08-29T22:12:55.459Z,54.66
2022-08-29T22:15:42.514Z,55.18
2022-08-29T22:18:09.627Z,54.38
2022-08-29T22:20:38.516Z,54.29
2022-08-29T22:23:05.878Z,54.61
2022-08-29T22:25:32.947Z,54.69
2022-08-29T22:27:59.825Z,55.16
2022-08-29T22:30:32.092Z,55.39
2022-08-29T22:33:00.505Z,55.55
2022-08-29T22:35:28.681Z,55.15
2022-08-29T22:37:55.897Z,55.02
2022-08-29T22:40:23.699Z,55.89
2022-08-29T22:42:50.486Z,56.68
2022-08-29T22:45:19.025Z,55.71
2022-08-29T22:47:47.137Z,55.08
2022-08-29T22:50:21.447Z,55.78
2022-08-29T22:52:49.197Z,55.95
2022-08-29T22:57:47.997Z,55.68
2022-08-29T23:00:20.137Z,56.45
2022-08-29T23:02:47.293Z,58.86
2022-08-29T23:05:15.274Z,57.64
2022-08-29T23:07:42.092Z,56.95
2022-08-29T23:10:10.214Z,56.64
2022-08-29T23:12:37.497Z,56.73
2022-08-29T23:15:10.293Z,56.85
2022-08-29T23:17:37.317Z,56.08
2022-08-29T23:20:06.577Z,55.11
2022-08-29T23:22:33.756Z,54.96
2022-08-29T23:25:04.651Z,55.07
2022-08-29T23:27:33.570Z,54.30
2022-08-29T23:30:01.653Z,55.57
2022-08-29T23:32:28.797Z,55.92
2022-08-29T23:34:55.856Z,55.71
2022-08-29T23:37:22.828Z,56.12
2022-08-29T23:39:49.632Z,56.97
2022-08-29T23:42:16.501Z,56.16
2022-08-29T23:44:43.351Z,55.68
2022-08-29T23:47:10.202Z,57.71
2022-08-29T23:49:36.965Z,57.22
2022-08-29T23:52:04.697Z,56.91
2022-08-29T23:54:32.546Z,56.18
2022-08-29T23:56:59.338Z,56.12
2022-08-29T23:59:44.867Z,55.69
